Time;durP1;ratioP1;P1;durP2;ratioP2;P2;SDS_P1;SDS_P2;PMS_P1;PMS_P2;Temp;Humidity;BMP_temperature;BMP_pressure;BME280_temperature;BME280_humidity;BME280_pressure;Samples;Min_cycle;Max_cycle;Signal;HPM_P1;HPM_P2
2023/05/03 00:00:59;;;;;;;7.25;6.35;;;;;;;;;;4943216;29;20275;-63
2023/05/03 00:03:27;;;;;;;6.82;6.25;;;;;;;;;;4942050;29;20280;-64
2023/05/03 00:05:55;;;;;;;12.38;6.97;;;;;;;;;;4925333;29;20231;-64
2023/05/03 00:08:23;;;;;;;11.32;6.45;;;;;;;;;;4942351;29;20299;-65
2023/05/03 00:10:59;;;;;;;9.65;5.90;;;;;;;;;;4940990;29;20315;-63
2023/05/03 00:13:28;;;;;;;9.43;6.20;;;;;;;;;;4942924;29;20271;-63
2023/05/03 00:15:56;;;;;;;9.40;6.90;;;;;;;;;;4923987;29;20284;-63
2023/05/03 00:18:24;;;;;;;9.60;7.53;;;;;;;;;;4924084;29;20296;-63
2023/05/03 00:20:53;;;;;;;6.20;5.60;;;;;;;;;;4923222;29;20308;-63
2023/05/03 00:23:21;;;;;;;10.90;6.50;;;;;;;;;;4923411;29;20269;-63
2023/05/03 00:25:54;;;;;;;6.07;5.28;;;;;;;;;;4923510;29;20265;-63
2023/05/03 00:28:22;;;;;;;10.90;7.45;;;;;;;;;;4923323;29;20284;-62
2023/05/03 00:30:50;;;;;;;6.53;5.93;;;;;;;;;;4937703;29;20312;-62
2023/05/03 00:33:18;;;;;;;10.02;6.18;;;;;;;;;;4923312;29;20293;-63
2023/05/03 00:35:47;;;;;;;10.45;6.93;;;;;;;;;;4921601;29;20674;-64
2023/05/03 00:38:15;;;;;;;7.97;6.60;;;;;;;;;;4922688;29;20296;-63
2023/05/03 00:40:44;;;;;;;10.05;7.43;;;;;;;;;;4923462;29;20292;-64
2023/05/03 00:43:13;;;;;;;11.30;6.32;;;;;;;;;;4922956;29;20281;-64
2023/05/03 00:45:45;;;;;;;9.93;6.65;;;;;;;;;;4940986;29;20640;-63
2023/05/03 00:48:13;;;;;;;9.57;6.15;;;;;;;;;;4941934;29;20686;-63
2023/05/03 00:50:41;;;;;;;6.28;5.63;;;;;;;;;;4942205;29;20794;-62
2023/05/03 00:53:10;;;;;;;9.95;6.70;;;;;;;;;;4941828;29;20323;-64
2023/05/03 00:55:38;;;;;;;10.18;6.07;;;;;;;;;;4942838;29;20371;-63
2023/05/03 00:58:06;;;;;;;9.82;6.43;;;;;;;;;;4941855;29;20268;-62
2023/05/03 01:00:36;;;;;;;10.30;6.35;;;;;;;;;;4941964;29;20260;-63
2023/05/03 01:03:04;;;;;;;8.23;6.05;;;;;;;;;;4939027;29;20213;-63
2023/05/03 01:05:38;;;;;;;8.00;6.97;;;;;;;;;;4938319;29;20233;-66
2023/05/03 01:08:09;;;;;;;10.60;7.65;;;;;;;;;;4938690;29;20249;-63
2023/05/03 01:10:41;;;;;;;13.48;6.72;;;;;;;;;;4939780;29;20359;-62
2023/05/03 01:13:15;;;;;;;8.95;6.50;;;;;;;;;;4939765;29;20197;-62
2023/05/03 01:15:50;;;;;;;10.88;6.88;;;;;;;;;;4940280;29;20608;-62
2023/05/03 01:18:21;;;;;;;10.10;6.82;;;;;;;;;;4939544;29;20281;-62
2023/05/03 01:20:51;;;;;;;10.07;7.47;;;;;;;;;;4939071;29;20691;-62
2023/05/03 01:23:30;;;;;;;8.10;6.35;;;;;;;;;;4939638;29;20291;-62
2023/05/03 01:25:59;;;;;;;9.82;7.22;;;;;;;;;;4940367;29;20215;-63
2023/05/03 01:28:28;;;;;;;12.15;6.75;;;;;;;;;;4923325;29;20285;-63
2023/05/03 01:30:57;;;;;;;11.23;6.55;;;;;;;;;;4923551;29;20236;-63
2023/05/03 01:33:31;;;;;;;15.85;6.30;;;;;;;;;;4939879;29;20260;-62
2023/05/03 01:36:01;;;;;;;9.00;5.85;;;;;;;;;;4940713;29;20270;-63
2023/05/03 01:38:31;;;;;;;8.90;6.55;;;;;;;;;;4940545;29;20695;-63
2023/05/03 01:41:01;;;;;;;9.07;5.93;;;;;;;;;;4940070;29;20271;-62
2023/05/03 01:43:31;;;;;;;12.57;7.78;;;;;;;;;;4940341;29;20348;-62
2023/05/03 01:45:59;;;;;;;12.20;6.50;;;;;;;;;;4940270;29;20303;-63
2023/05/03 01:48:27;;;;;;;9.45;6.65;;;;;;;;;;4939200;29;20294;-63
2023/05/03 01:50:56;;;;;;;9.07;6.70;;;;;;;;;;4939777;29;20205;-63
2023/05/03 01:53:26;;;;;;;13.73;7.78;;;;;;;;;;4939511;29;20212;-65
2023/05/03 01:55:54;;;;;;;10.60;5.70;;;;;;;;;;4938686;29;20271;-63
2023/05/03 01:58:23;;;;;;;10.48;6.70;;;;;;;;;;4940019;29;20287;-65
2023/05/03 02:00:52;;;;;;;13.60;6.88;;;;;;;;;;4937642;29;20217;-62
2023/05/03 02:03:21;;;;;;;7.63;5.75;;;;;;;;;;4938831;29;20264;-63
2023/05/03 02:05:49;;;;;;;11.93;7.15;;;;;;;;;;4921388;29;20610;-64
2023/05/03 02:08:17;;;;;;;9.05;6.80;;;;;;;;;;4920853;29;20280;-64
2023/05/03 02:10:45;;;;;;;10.38;7.15;;;;;;;;;;4931069;29;20307;-66
2023/05/03 02:13:13;;;;;;;8.52;5.88;;;;;;;;;;4938737;29;20283;-63
2023/05/03 02:15:43;;;;;;;10.20;7.35;;;;;;;;;;4939873;29;20287;-62
2023/05/03 02:18:11;;;;;;;8.15;6.78;;;;;;;;;;4939331;29;20787;-63
2023/05/03 02:20:39;;;;;;;9.15;7.07;;;;;;;;;;4939468;29;20787;-62
2023/05/03 02:23:08;;;;;;;25.48;7.15;;;;;;;;;;4939762;29;20283;-64
2023/05/03 02:25:36;;;;;;;11.45;7.57;;;;;;;;;;4922601;29;20252;-62
2023/05/03 02:28:04;;;;;;;9.63;7.07;;;;;;;;;;4940094;29;20208;-66
2023/05/03 02:30:32;;;;;;;11.68;7.60;;;;;;;;;;4939165;29;20252;-63
2023/05/03 02:33:02;;;;;;;9.35;6.85;;;;;;;;;;4941302;29;20292;-61
2023/05/03 02:35:32;;;;;;;14.35;8.40;;;;;;;;;;4943896;29;20291;-63
2023/05/03 02:38:01;;;;;;;8.57;7.68;;;;;;;;;;4945281;29;20340;-63
2023/05/03 02:40:29;;;;;;;8.38;6.82;;;;;;;;;;4944073;29;20266;-63
2023/05/03 02:42:58;;;;;;;17.60;8.18;;;;;;;;;;4944567;29;20281;-62
2023/05/03 02:45:30;;;;;;;12.35;6.50;;;;;;;;;;4927545;29;20271;-63
2023/05/03 02:47:58;;;;;;;8.70;6.93;;;;;;;;;;4945802;29;20657;-62
2023/05/03 02:50:29;;;;;;;9.63;7.80;;;;;;;;;;4945127;29;20554;-63
2023/05/03 02:52:57;;;;;;;10.88;7.35;;;;;;;;;;4944548;29;20292;-62
2023/05/03 02:55:26;;;;;;;13.43;7.55;;;;;;;;;;4943315;29;20232;-65
2023/05/03 02:57:55;;;;;;;10.60;7.40;;;;;;;;;;4944435;29;20633;-63
2023/05/03 03:00:23;;;;;;;14.18;7.32;;;;;;;;;;4927414;29;20291;-63
2023/05/03 03:02:51;;;;;;;14.38;8.52;;;;;;;;;;4944145;29;20268;-62
2023/05/03 03:05:19;;;;;;;8.73;7.00;;;;;;;;;;4944373;29;20283;-62
2023/05/03 03:07:52;;;;;;;10.80;6.95;;;;;;;;;;4928396;29;20204;-63
2023/05/03 03:10:20;;;;;;;11.88;6.32;;;;;;;;;;4944229;29;20763;-63
2023/05/03 03:12:49;;;;;;;12.35;6.93;;;;;;;;;;4944406;29;20212;-63
2023/05/03 03:15:27;;;;;;;9.93;7.55;;;;;;;;;;4943821;29;20212;-64
2023/05/03 03:17:57;;;;;;;11.27;6.90;;;;;;;;;;4945000;29;20367;-63
2023/05/03 03:20:25;;;;;;;10.70;6.25;;;;;;;;;;4944911;29;20534;-63
2023/05/03 03:22:55;;;;;;;9.85;7.45;;;;;;;;;;4944043;29;20210;-63
2023/05/03 03:25:23;;;;;;;9.75;6.07;;;;;;;;;;4943463;29;20277;-64
2023/05/03 03:27:53;;;;;;;11.98;7.55;;;;;;;;;;4943190;29;20735;-64
2023/05/03 03:30:21;;;;;;;11.15;7.70;;;;;;;;;;4927603;29;20309;-64
2023/05/03 03:32:59;;;;;;;12.20;7.97;;;;;;;;;;4931192;29;20271;-63
2023/05/03 03:35:35;;;;;;;15.13;7.90;;;;;;;;;;4942946;29;20222;-64
2023/05/03 03:38:04;;;;;;;21.35;6.80;;;;;;;;;;4944819;29;20271;-64
2023/05/03 03:40:34;;;;;;;12.90;7.05;;;;;;;;;;4927921;29;20275;-63
2023/05/03 03:43:02;;;;;;;11.93;8.00;;;;;;;;;;4945040;29;20287;-63
2023/05/03 03:45:31;;;;;;;20.83;8.63;;;;;;;;;;4939792;29;20284;-64
2023/05/03 03:48:01;;;;;;;10.15;6.70;;;;;;;;;;4925048;29;20264;-63
2023/05/03 03:50:29;;;;;;;10.80;7.30;;;;;;;;;;4941542;29;20209;-64
2023/05/03 03:52:58;;;;;;;14.55;7.05;;;;;;;;;;4941085;29;20270;-63
2023/05/03 03:55:28;;;;;;;11.15;7.10;;;;;;;;;;4940829;29;20231;-64
2023/05/03 03:57:58;;;;;;;14.20;8.25;;;;;;;;;;4940945;29;20235;-64
2023/05/03 04:00:28;;;;;;;12.80;7.95;;;;;;;;;;4942070;29;20438;-63
2023/05/03 04:03:06;;;;;;;8.93;7.15;;;;;;;;;;4940708;29;20193;-65
2023/05/03 04:05:35;;;;;;;9.20;6.68;;;;;;;;;;4940554;29;20215;-63
2023/05/03 04:08:03;;;;;;;12.20;6.88;;;;;;;;;;4924555;29;20276;-63
2023/05/03 04:10:35;;;;;;;11.43;8.00;;;;;;;;;;4924414;29;20248;-63
2023/05/03 04:13:04;;;;;;;15.02;7.05;;;;;;;;;;4924321;29;20288;-63
2023/05/03 04:15:32;;;;;;;14.52;8.30;;;;;;;;;;4941461;29;20227;-63
2023/05/03 04:18:04;;;;;;;13.27;7.20;;;;;;;;;;4924019;29;20275;-63
2023/05/03 04:20:33;;;;;;;15.35;7.88;;;;;;;;;;4924606;29;20573;-64
2023/05/03 04:23:03;;;;;;;11.32;7.60;;;;;;;;;;4940820;29;20237;-63
2023/05/03 04:25:32;;;;;;;13.50;7.45;;;;;;;;;;4924188;29;20848;-63
2023/05/03 04:28:10;;;;;;;12.00;7.85;;;;;;;;;;4924163;29;20248;-63
2023/05/03 04:30:43;;;;;;;22.70;9.00;;;;;;;;;;4939413;29;20282;-63
2023/05/03 04:33:12;;;;;;;11.90;7.63;;;;;;;;;;4940787;29;20275;-63
2023/05/03 04:35:42;;;;;;;16.13;10.45;;;;;;;;;;4941397;29;20295;-63
2023/05/03 04:38:14;;;;;;;14.23;6.90;;;;;;;;;;4939964;29;20189;-63
2023/05/03 04:40:42;;;;;;;11.95;7.68;;;;;;;;;;4924495;29;20287;-62
2023/05/03 04:43:13;;;;;;;12.98;7.28;;;;;;;;;;4924252;29;20209;-64
2023/05/03 04:45:45;;;;;;;8.15;7.30;;;;;;;;;;4939723;29;20450;-63
2023/05/03 04:48:20;;;;;;;21.30;7.65;;;;;;;;;;4923614;29;20197;-63
2023/05/03 04:50:50;;;;;;;8.40;5.88;;;;;;;;;;4941264;29;20288;-63
2023/05/03 04:53:20;;;;;;;8.07;7.25;;;;;;;;;;4923773;29;20285;-63
2023/05/03 04:55:55;;;;;;;10.23;7.65;;;;;;;;;;4924365;29;20291;-63
2023/05/03 04:58:25;;;;;;;10.43;6.88;;;;;;;;;;4907711;29;20295;-64
2023/05/03 05:00:54;;;;;;;12.80;8.20;;;;;;;;;;4923016;29;20288;-63
2023/05/03 05:03:30;;;;;;;7.38;6.57;;;;;;;;;;4923334;29;20738;-64
2023/05/03 05:06:01;;;;;;;17.20;7.78;;;;;;;;;;4945541;29;20193;-64
2023/05/03 05:08:30;;;;;;;13.43;8.05;;;;;;;;;;4930941;29;20216;-64
2023/05/03 05:10:59;;;;;;;12.65;8.30;;;;;;;;;;4929363;29;20378;-64
2023/05/03 05:13:33;;;;;;;8.68;7.25;;;;;;;;;;4925052;29;20200;-64
2023/05/03 05:16:01;;;;;;;14.43;7.60;;;;;;;;;;4936787;29;20247;-63
2023/05/03 05:18:30;;;;;;;25.20;11.05;;;;;;;;;;4928737;29;20201;-64
2023/05/03 05:21:00;;;;;;;9.43;7.47;;;;;;;;;;4925077;29;20277;-63
2023/05/03 05:23:28;;;;;;;12.93;8.15;;;;;;;;;;4939594;29;20256;-63
2023/05/03 05:25:59;;;;;;;12.15;7.43;;;;;;;;;;4923081;29;20280;-63
2023/05/03 05:28:29;;;;;;;10.05;6.78;;;;;;;;;;4902825;29;20198;-64
2023/05/03 05:30:58;;;;;;;16.75;8.50;;;;;;;;;;4924720;29;20578;-62
2023/05/03 05:33:27;;;;;;;15.02;8.18;;;;;;;;;;4922428;29;20647;-64
2023/05/03 05:35:55;;;;;;;12.00;8.07;;;;;;;;;;4922321;29;20205;-63
2023/05/03 05:38:24;;;;;;;21.80;8.48;;;;;;;;;;4949378;29;20818;-64
2023/05/03 05:40:55;;;;;;;10.23;9.32;;;;;;;;;;4937871;29;20208;-65
2023/05/03 05:43:24;;;;;;;11.23;7.30;;;;;;;;;;4962834;29;20291;-65
2023/05/03 05:45:52;;;;;;;11.77;8.30;;;;;;;;;;4955907;29;20695;-66
2023/05/03 05:48:23;;;;;;;12.07;7.50;;;;;;;;;;4950028;29;20252;-66
2023/05/03 05:50:51;;;;;;;8.98;7.53;;;;;;;;;;4933722;29;20232;-66
2023/05/03 05:53:20;;;;;;;8.65;7.32;;;;;;;;;;4946885;29;20731;-66
2023/05/03 05:55:55;;;;;;;12.40;7.90;;;;;;;;;;4933828;29;20216;-66
2023/05/03 05:58:24;;;;;;;10.45;7.20;;;;;;;;;;4964423;29;20255;-65
2023/05/03 06:01:00;;;;;;;13.15;7.75;;;;;;;;;;4969096;29;20232;-65
2023/05/03 06:03:31;;;;;;;14.95;8.52;;;;;;;;;;4962500;29;20299;-63
2023/05/03 06:06:01;;;;;;;9.40;7.20;;;;;;;;;;4957515;29;20211;-64
2023/05/03 06:08:29;;;;;;;10.52;7.05;;;;;;;;;;4958065;28;20299;-63
2023/05/03 06:10:57;;;;;;;14.40;7.50;;;;;;;;;;4957414;29;20785;-63
2023/05/03 06:13:27;;;;;;;13.32;7.78;;;;;;;;;;4955799;29;20196;-63
2023/05/03 06:15:56;;;;;;;12.65;8.13;;;;;;;;;;4955560;29;20680;-62
2023/05/03 06:18:25;;;;;;;13.27;7.30;;;;;;;;;;4940972;29;20564;-64
2023/05/03 06:20:55;;;;;;;12.27;8.55;;;;;;;;;;4936782;29;20300;-63
2023/05/03 06:23:23;;;;;;;9.18;8.18;;;;;;;;;;4936327;29;20603;-64
2023/05/03 06:25:53;;;;;;;10.00;7.05;;;;;;;;;;4901658;29;20216;-63
2023/05/03 06:28:22;;;;;;;14.35;7.85;;;;;;;;;;4930884;29;20282;-65
2023/05/03 06:30:53;;;;;;;16.65;8.32;;;;;;;;;;4922313;29;20271;-63
2023/05/03 06:33:21;;;;;;;8.23;7.22;;;;;;;;;;4921646;29;20219;-63
2023/05/03 06:35:52;;;;;;;11.88;7.38;;;;;;;;;;4920737;29;20661;-63
2023/05/03 06:38:22;;;;;;;16.42;7.47;;;;;;;;;;4920440;29;20220;-64
2023/05/03 06:40:50;;;;;;;11.70;8.13;;;;;;;;;;4938619;29;20287;-64
2023/05/03 06:43:19;;;;;;;12.60;8.10;;;;;;;;;;4938469;29;20222;-64
2023/05/03 06:45:56;;;;;;;11.45;7.97;;;;;;;;;;4935718;29;20275;-63
2023/05/03 06:48:25;;;;;;;11.35;8.30;;;;;;;;;;4905977;29;20248;-64
2023/05/03 06:50:53;;;;;;;14.95;9.57;;;;;;;;;;4940565;29;20336;-66
2023/05/03 06:53:22;;;;;;;16.80;7.85;;;;;;;;;;4923008;29;20262;-64
2023/05/03 06:55:51;;;;;;;13.27;8.45;;;;;;;;;;4930415;29;20280;-63
2023/05/03 06:58:19;;;;;;;13.07;8.00;;;;;;;;;;4940471;29;21091;-64
2023/05/03 07:00:47;;;;;;;13.55;8.05;;;;;;;;;;4937348;29;20687;-63
2023/05/03 07:03:16;;;;;;;12.68;8.25;;;;;;;;;;4936660;29;20679;-63
2023/05/03 07:05:45;;;;;;;12.85;7.45;;;;;;;;;;4936864;29;20268;-64
2023/05/03 07:08:13;;;;;;;12.00;8.07;;;;;;;;;;4939307;29;20280;-63
2023/05/03 07:10:43;;;;;;;12.32;8.45;;;;;;;;;;4937638;29;20311;-65
2023/05/03 07:13:11;;;;;;;13.75;7.50;;;;;;;;;;4937825;29;20284;-64
2023/05/03 07:15:39;;;;;;;12.60;8.77;;;;;;;;;;4939196;29;20264;-64
2023/05/03 07:18:07;;;;;;;10.75;8.15;;;;;;;;;;4946322;29;20268;-63
2023/05/03 07:20:36;;;;;;;11.30;7.90;;;;;;;;;;4961414;29;20295;-68
2023/05/03 07:23:05;;;;;;;15.52;8.25;;;;;;;;;;4949216;29;20284;-63
2023/05/03 07:25:33;;;;;;;8.85;7.90;;;;;;;;;;4944995;29;20287;-65
2023/05/03 07:28:03;;;;;;;23.38;8.98;;;;;;;;;;4945036;29;20204;-63
2023/05/03 07:30:31;;;;;;;9.80;7.88;;;;;;;;;;4940086;29;20315;-64
2023/05/03 07:32:59;;;;;;;12.95;9.00;;;;;;;;;;4943641;29;20691;-64
2023/05/03 07:35:27;;;;;;;10.32;8.43;;;;;;;;;;4925790;29;20259;-65
2023/05/03 07:37:56;;;;;;;16.55;8.20;;;;;;;;;;4941894;29;20235;-64
2023/05/03 07:40:27;;;;;;;10.43;7.75;;;;;;;;;;4939602;29;20671;-65
2023/05/03 07:42:55;;;;;;;10.90;7.97;;;;;;;;;;4918571;29;20201;-65
2023/05/03 07:45:25;;;;;;;9.93;7.65;;;;;;;;;;4940995;29;20209;-65
2023/05/03 07:47:55;;;;;;;12.98;9.63;;;;;;;;;;4939749;29;20188;-64
2023/05/03 07:50:23;;;;;;;10.55;7.57;;;;;;;;;;4940887;29;20260;-65
2023/05/03 07:52:51;;;;;;;13.10;8.30;;;;;;;;;;4941351;29;20204;-66
2023/05/03 07:55:20;;;;;;;15.32;8.25;;;;;;;;;;4934649;29;20267;-64
2023/05/03 07:57:49;;;;;;;10.43;8.60;;;;;;;;;;4941226;29;20223;-64
2023/05/03 08:00:18;;;;;;;13.63;8.52;;;;;;;;;;4941383;29;20264;-64
2023/05/03 08:02:47;;;;;;;8.38;7.47;;;;;;;;;;4939514;29;20204;-66
2023/05/03 08:05:16;;;;;;;9.90;7.85;;;;;;;;;;4941026;29;20331;-65
2023/05/03 08:07:44;;;;;;;11.10;9.10;;;;;;;;;;4941001;29;20287;-63
2023/05/03 08:10:13;;;;;;;12.57;9.02;;;;;;;;;;4924937;29;20462;-63
2023/05/03 08:12:41;;;;;;;11.05;8.85;;;;;;;;;;4939209;29;20287;-63
2023/05/03 08:15:10;;;;;;;13.02;8.70;;;;;;;;;;4940436;29;20287;-65
2023/05/03 08:17:42;;;;;;;10.32;7.82;;;;;;;;;;4943149;29;20623;-68
2023/05/03 08:20:12;;;;;;;16.70;8.85;;;;;;;;;;4941536;29;20256;-63
2023/05/03 08:22:41;;;;;;;11.27;8.63;;;;;;;;;;4942657;29;20272;-65
2023/05/03 08:25:11;;;;;;;16.30;10.60;;;;;;;;;;4940663;29;20391;-66
2023/05/03 08:27:39;;;;;;;12.73;9.52;;;;;;;;;;4938089;29;20275;-67
2023/05/03 08:30:08;;;;;;;11.82;8.10;;;;;;;;;;4938262;29;20207;-66
2023/05/03 08:32:36;;;;;;;14.15;10.48;;;;;;;;;;4937494;29;20211;-66
2023/05/03 08:35:06;;;;;;;10.15;8.85;;;;;;;;;;4950457;29;20715;-66
2023/05/03 08:37:40;;;;;;;11.30;9.85;;;;;;;;;;4956112;29;20234;-65
2023/05/03 08:40:10;;;;;;;12.20;9.55;;;;;;;;;;4921439;29;20207;-65
2023/05/03 08:42:42;;;;;;;10.05;8.93;;;;;;;;;;4940794;29;20224;-65
2023/05/03 08:45:11;;;;;;;14.60;9.30;;;;;;;;;;4939482;29;20268;-66
2023/05/03 08:47:40;;;;;;;12.23;9.40;;;;;;;;;;4938689;29;20632;-64
2023/05/03 08:50:09;;;;;;;18.25;8.70;;;;;;;;;;4940033;29;20723;-65
2023/05/03 08:52:40;;;;;;;9.70;8.15;;;;;;;;;;4939792;29;20223;-66
2023/05/03 08:55:08;;;;;;;12.32;9.48;;;;;;;;;;4938151;29;20193;-64
2023/05/03 08:57:37;;;;;;;11.80;9.03;;;;;;;;;;4936990;29;20215;-67
2023/05/03 09:00:09;;;;;;;15.87;9.23;;;;;;;;;;4937598;29;20621;-64
2023/05/03 09:02:40;;;;;;;10.93;9.83;;;;;;;;;;4937249;29;20616;-65
2023/05/03 09:05:30;;;;;;;10.87;8.87;;;;;;;;;;4939504;29;20587;-65
2023/05/03 09:08:06;;;;;;;14.33;9.20;;;;;;;;;;4942794;29;20692;-64
2023/05/03 09:10:34;;;;;;;14.80;8.90;;;;;;;;;;4924684;29;20678;-64
2023/05/03 09:13:03;;;;;;;9.53;8.20;;;;;;;;;;4939068;29;20666;-64
2023/05/03 09:15:31;;;;;;;11.47;9.37;;;;;;;;;;4939778;29;20678;-65
2023/05/03 09:18:16;;;;;;;10.97;9.87;;;;;;;;;;4938229;29;20645;-65
2023/05/03 09:20:50;;;;;;;11.93;9.13;;;;;;;;;;4936724;29;20671;-66
2023/05/03 09:23:21;;;;;;;12.80;9.53;;;;;;;;;;4937375;29;20603;-65
2023/05/03 09:25:50;;;;;;;10.87;9.07;;;;;;;;;;4935760;29;20580;-66
2023/05/03 09:28:19;;;;;;;11.30;9.60;;;;;;;;;;4936134;29;20650;-66
2023/05/03 09:30:48;;;;;;;14.30;9.70;;;;;;;;;;4937123;29;20610;-65
2023/05/03 09:33:20;;;;;;;10.37;9.30;;;;;;;;;;4935777;29;20598;-66
2023/05/03 09:35:58;;;;;;;15.30;9.70;;;;;;;;;;4937966;29;20596;-66
2023/05/03 09:38:28;;;;;;;10.90;9.83;;;;;;;;;;4943046;29;20710;-64
2023/05/03 09:40:57;;;;;;;12.27;9.70;;;;;;;;;;4901854;29;20636;-66
2023/05/03 09:43:26;;;;;;;14.73;10.20;;;;;;;;;;4936171;29;20637;-64
2023/05/03 09:46:07;;;;;;;8.70;7.90;;;;;;;;;;4938461;29;20746;-64
2023/05/03 09:48:37;;;;;;;10.03;9.13;;;;;;;;;;4953952;29;20988;-66
2023/05/03 09:51:05;;;;;;;12.07;8.77;;;;;;;;;;4947269;29;20631;-66
2023/05/03 09:53:36;;;;;;;10.70;9.53;;;;;;;;;;4951601;29;20698;-64
2023/05/03 09:56:07;;;;;;;9.30;8.27;;;;;;;;;;4936605;29;20683;-65
2023/05/03 09:58:36;;;;;;;11.73;10.03;;;;;;;;;;4937651;29;20627;-67
2023/05/03 10:01:04;;;;;;;17.60;10.67;;;;;;;;;;4921530;29;20731;-65
2023/05/03 10:03:35;;;;;;;15.87;9.53;;;;;;;;;;4938156;29;21013;-65
2023/05/03 10:06:06;;;;;;;11.50;9.83;;;;;;;;;;4938122;29;20590;-66
2023/05/03 10:08:37;;;;;;;13.03;9.83;;;;;;;;;;4924945;29;20625;-65
2023/05/03 10:11:08;;;;;;;11.80;10.17;;;;;;;;;;4938430;29;20775;-64
2023/05/03 10:13:37;;;;;;;12.33;10.40;;;;;;;;;;4938415;29;20646;-64
2023/05/03 10:16:08;;;;;;;10.63;9.73;;;;;;;;;;4937425;29;20750;-64
2023/05/03 10:18:38;;;;;;;11.27;10.10;;;;;;;;;;4937130;29;20649;-65
2023/05/03 10:21:08;;;;;;;11.97;10.77;;;;;;;;;;4936855;29;20623;-66
2023/05/03 10:23:58;;;;;;;10.87;9.73;;;;;;;;;;4931887;29;20629;-66
2023/05/03 10:26:26;;;;;;;11.73;10.73;;;;;;;;;;4934277;29;20638;-65
2023/05/03 10:28:54;;;;;;;11.03;10.03;;;;;;;;;;4933338;29;20615;-65
2023/05/03 10:31:41;;;;;;;11.10;8.97;;;;;;;;;;4934452;29;20643;-65
2023/05/03 10:34:20;;;;;;;10.03;8.83;;;;;;;;;;4918851;29;21142;-64
2023/05/03 10:36:51;;;;;;;11.80;10.27;;;;;;;;;;4935756;29;20567;-67
2023/05/03 10:39:21;;;;;;;15.80;9.67;;;;;;;;;;4918578;29;21206;-64
2023/05/03 10:42:00;;;;;;;13.77;10.87;;;;;;;;;;4902044;29;20629;-67
2023/05/03 10:44:28;;;;;;;12.40;11.10;;;;;;;;;;4922980;29;20605;-65
2023/05/03 10:46:58;;;;;;;12.33;10.37;;;;;;;;;;4935093;29;20607;-66
2023/05/03 10:49:26;;;;;;;11.50;10.50;;;;;;;;;;4934728;29;20628;-66
2023/05/03 10:51:54;;;;;;;11.70;10.60;;;;;;;;;;4935636;29;20692;-65
2023/05/03 10:54:24;;;;;;;10.60;9.60;;;;;;;;;;4937853;29;20671;-63
2023/05/03 10:56:53;;;;;;;12.30;11.00;;;;;;;;;;4939021;29;21001;-63
2023/05/03 10:59:23;;;;;;;13.00;10.90;;;;;;;;;;4935640;29;20664;-64
2023/05/03 11:01:52;;;;;;;12.43;11.17;;;;;;;;;;4937326;29;20599;-64
2023/05/03 11:04:26;;;;;;;11.83;10.70;;;;;;;;;;4938127;29;20635;-64
2023/05/03 11:06:55;;;;;;;12.20;9.77;;;;;;;;;;4937955;29;20664;-63
2023/05/03 11:09:32;;;;;;;13.17;9.83;;;;;;;;;;4938747;29;20648;-65
2023/05/03 11:12:01;;;;;;;13.30;10.10;;;;;;;;;;4938742;29;21044;-64
2023/05/03 11:14:30;;;;;;;12.80;11.70;;;;;;;;;;4920990;29;20628;-65
2023/05/03 11:16:59;;;;;;;10.10;9.33;;;;;;;;;;4920714;29;20957;-64
2023/05/03 11:19:29;;;;;;;12.40;10.93;;;;;;;;;;4939045;29;21253;-64
2023/05/03 11:21:58;;;;;;;10.90;10.17;;;;;;;;;;4937636;29;21019;-64
2023/05/03 11:24:26;;;;;;;11.53;10.63;;;;;;;;;;4938406;29;20632;-65
2023/05/03 11:26:56;;;;;;;12.93;11.83;;;;;;;;;;4932015;29;20632;-64
2023/05/03 11:29:25;;;;;;;12.53;11.60;;;;;;;;;;4939050;29;20643;-65
2023/05/03 11:31:53;;;;;;;12.33;11.03;;;;;;;;;;4937727;29;21280;-64
2023/05/03 11:34:21;;;;;;;12.10;11.23;;;;;;;;;;4938801;29;20628;-61
2023/05/03 11:36:50;;;;;;;13.50;12.50;;;;;;;;;;4936781;29;20624;-65
2023/05/03 11:39:18;;;;;;;12.33;11.47;;;;;;;;;;4937385;29;21233;-64
2023/05/03 11:42:01;;;;;;;13.13;12.23;;;;;;;;;;4937561;29;20650;-66
2023/05/03 11:44:31;;;;;;;12.77;11.67;;;;;;;;;;4937764;29;21178;-65
2023/05/03 11:46:59;;;;;;;13.73;12.37;;;;;;;;;;4937331;29;20635;-64
2023/05/03 11:49:28;;;;;;;13.40;12.10;;;;;;;;;;4937020;29;20678;-65
2023/05/03 11:51:56;;;;;;;11.73;10.83;;;;;;;;;;4937273;29;20636;-65
2023/05/03 11:54:25;;;;;;;12.17;11.47;;;;;;;;;;4938534;29;20620;-67
2023/05/03 11:56:56;;;;;;;12.13;11.30;;;;;;;;;;4921162;29;20639;-62
2023/05/03 11:59:35;;;;;;;11.90;10.97;;;;;;;;;;4937369;29;20623;-63
2023/05/03 12:02:04;;;;;;;12.03;11.23;;;;;;;;;;4936469;29;20619;-64
2023/05/03 12:04:32;;;;;;;13.10;11.97;;;;;;;;;;4937518;29;20624;-63
2023/05/03 12:07:01;;;;;;;13.90;12.70;;;;;;;;;;4936760;29;20644;-64
2023/05/03 12:09:29;;;;;;;14.40;12.97;;;;;;;;;;4917162;29;20687;-63
2023/05/03 12:11:58;;;;;;;14.03;12.90;;;;;;;;;;4918632;29;20724;-63
2023/05/03 12:14:26;;;;;;;13.63;12.60;;;;;;;;;;4916751;29;20641;-64
2023/05/03 12:16:57;;;;;;;12.93;12.10;;;;;;;;;;4917783;29;20632;-66
2023/05/03 12:19:26;;;;;;;13.17;12.17;;;;;;;;;;4916466;29;21136;-64
2023/05/03 12:21:54;;;;;;;13.10;12.10;;;;;;;;;;4915887;29;20633;-64
2023/05/03 12:24:23;;;;;;;12.50;11.50;;;;;;;;;;4915767;29;20641;-64
2023/05/03 12:26:51;;;;;;;12.87;11.80;;;;;;;;;;4906030;29;20666;-64
2023/05/03 12:29:19;;;;;;;14.03;12.97;;;;;;;;;;4911615;29;20660;-64
2023/05/03 12:31:47;;;;;;;13.60;12.67;;;;;;;;;;4918526;29;20629;-64
2023/05/03 12:34:17;;;;;;;12.87;11.87;;;;;;;;;;4917059;29;20641;-64
2023/05/03 12:36:45;;;;;;;12.50;11.50;;;;;;;;;;4917481;29;20712;-63
2023/05/03 12:39:17;;;;;;;12.57;11.73;;;;;;;;;;4919731;29;20637;-64
2023/05/03 12:41:45;;;;;;;11.87;11.23;;;;;;;;;;4916970;29;20613;-66
2023/05/03 12:44:14;;;;;;;11.70;11.00;;;;;;;;;;4915792;29;20637;-64
2023/05/03 12:46:42;;;;;;;12.30;11.50;;;;;;;;;;4916248;29;20659;-64
2023/05/03 12:49:10;;;;;;;12.33;11.50;;;;;;;;;;4917530;29;20633;-65
2023/05/03 12:51:40;;;;;;;11.50;10.70;;;;;;;;;;4917612;29;20629;-65
2023/05/03 12:54:10;;;;;;;12.50;11.70;;;;;;;;;;4917613;29;21271;-64
2023/05/03 12:56:38;;;;;;;12.07;11.27;;;;;;;;;;4917027;29;20641;-64
2023/05/03 12:59:06;;;;;;;13.30;12.40;;;;;;;;;;4917870;29;20643;-65
2023/05/03 13:01:34;;;;;;;12.87;11.97;;;;;;;;;;4918058;29;21223;-65
2023/05/03 13:04:03;;;;;;;13.33;12.33;;;;;;;;;;4916122;29;20647;-64
2023/05/03 13:06:31;;;;;;;12.40;11.40;;;;;;;;;;4901191;29;20966;-64
2023/05/03 13:09:01;;;;;;;12.80;11.93;;;;;;;;;;4916621;29;20630;-65
2023/05/03 13:11:30;;;;;;;12.87;11.70;;;;;;;;;;4938174;29;21190;-64
2023/05/03 13:13:58;;;;;;;12.03;11.13;;;;;;;;;;4935814;29;20624;-64
2023/05/03 13:16:26;;;;;;;12.00;11.20;;;;;;;;;;4938438;29;20643;-64
2023/05/03 13:18:55;;;;;;;11.40;10.70;;;;;;;;;;4920311;29;20623;-64
2023/05/03 13:21:23;;;;;;;11.87;11.17;;;;;;;;;;4938474;29;21052;-64
2023/05/03 13:23:52;;;;;;;14.13;11.53;;;;;;;;;;4937245;29;20619;-64
2023/05/03 13:26:21;;;;;;;11.40;10.60;;;;;;;;;;4938561;29;20648;-63
2023/05/03 13:28:50;;;;;;;11.13;10.43;;;;;;;;;;4937666;29;20625;-64
2023/05/03 13:31:18;;;;;;;11.93;11.13;;;;;;;;;;4938929;29;20667;-63
2023/05/03 13:33:46;;;;;;;11.20;10.50;;;;;;;;;;4937966;29;20712;-63
2023/05/03 13:36:15;;;;;;;12.40;11.60;;;;;;;;;;4938726;29;20727;-64
2023/05/03 13:38:43;;;;;;;11.10;10.47;;;;;;;;;;4937600;29;20627;-63
2023/05/03 13:41:12;;;;;;;11.93;11.33;;;;;;;;;;4938399;29;20648;-64
2023/05/03 13:43:42;;;;;;;12.30;11.27;;;;;;;;;;4938137;29;20623;-65
2023/05/03 13:46:11;;;;;;;12.57;11.57;;;;;;;;;;4936416;29;20616;-62
2023/05/03 13:48:39;;;;;;;12.47;11.47;;;;;;;;;;4936449;29;20608;-63
2023/05/03 13:51:08;;;;;;;12.70;11.63;;;;;;;;;;4936780;29;20656;-64
2023/05/03 13:53:36;;;;;;;10.93;10.43;;;;;;;;;;4936115;29;21233;-63
2023/05/03 13:56:06;;;;;;;12.23;10.97;;;;;;;;;;4935681;29;20624;-63
2023/05/03 13:58:35;;;;;;;10.60;10.10;;;;;;;;;;4937189;29;20612;-63
2023/05/03 14:01:05;;;;;;;10.67;9.97;;;;;;;;;;4920441;29;20615;-64
2023/05/03 14:03:33;;;;;;;11.93;11.13;;;;;;;;;;4936258;29;20618;-64
2023/05/03 14:06:03;;;;;;;11.30;10.60;;;;;;;;;;4937046;29;20625;-63
2023/05/03 14:08:31;;;;;;;11.13;10.33;;;;;;;;;;4936945;29;20608;-63
2023/05/03 14:10:59;;;;;;;10.60;10.00;;;;;;;;;;4935989;29;20683;-64
2023/05/03 14:13:28;;;;;;;10.73;10.23;;;;;;;;;;4920283;29;20999;-64
2023/05/03 14:15:56;;;;;;;11.23;10.53;;;;;;;;;;4937190;29;20636;-64
2023/05/03 14:18:26;;;;;;;11.13;10.33;;;;;;;;;;4937145;29;20679;-64
2023/05/03 14:21:04;;;;;;;9.00;8.60;;;;;;;;;;4936537;29;20613;-63
2023/05/03 14:23:35;;;;;;;9.73;9.33;;;;;;;;;;4937777;29;20653;-64
2023/05/03 14:26:06;;;;;;;10.40;9.80;;;;;;;;;;4937229;29;21193;-64
2023/05/03 14:28:35;;;;;;;10.43;9.43;;;;;;;;;;4937111;29;20585;-64
2023/05/03 14:31:05;;;;;;;9.43;9.03;;;;;;;;;;4937152;29;20666;-64
2023/05/03 14:33:35;;;;;;;9.70;9.10;;;;;;;;;;4937623;29;20668;-64
2023/05/03 14:36:04;;;;;;;9.77;9.07;;;;;;;;;;4937234;29;20612;-64
2023/05/03 14:38:32;;;;;;;9.27;8.87;;;;;;;;;;4936967;29;20627;-63
2023/05/03 14:41:00;;;;;;;9.43;9.03;;;;;;;;;;4936137;29;20675;-64
2023/05/03 14:43:28;;;;;;;9.70;9.10;;;;;;;;;;4919331;29;20699;-63